sensor_id;sensor_type;location;lat;lon;timestamp;P1;durP1;ratioP1;P2;durP2;ratioP2
30948;SDS011;17637;51.984;21.208;2022-08-21T00:00:50;7.28;;;5.18;;
30948;SDS011;17637;51.984;21.208;2022-08-21T00:05:53;8.40;;;5.05;;
30948;SDS011;17637;51.984;21.208;2022-08-21T00:10:57;6.75;;;5.00;;
30948;SDS011;17637;51.984;21.208;2022-08-21T00:16:00;8.98;;;5.45;;
30948;SDS011;17637;51.984;21.208;2022-08-21T00:21:05;8.65;;;5.55;;
30948;SDS011;17637;51.984;21.208;2022-08-21T00:26:10;6.80;;;6.10;;
30948;SDS011;17637;51.984;21.208;2022-08-21T00:31:13;8.63;;;6.43;;
30948;SDS011;17637;51.984;21.208;2022-08-21T00:36:16;10.95;;;6.50;;
30948;SDS011;17637;51.984;21.208;2022-08-21T00:41:21;7.10;;;6.30;;
30948;SDS011;17637;51.984;21.208;2022-08-21T00:46:40;6.68;;;5.93;;
30948;SDS011;17637;51.984;21.208;2022-08-21T00:51:45;8.45;;;5.85;;
30948;SDS011;17637;51.984;21.208;2022-08-21T00:56:52;8.55;;;5.88;;
30948;SDS011;17637;51.984;21.208;2022-08-21T01:02:00;10.80;;;6.30;;
30948;SDS011;17637;51.984;21.208;2022-08-21T01:07:03;15.32;;;6.55;;
30948;SDS011;17637;51.984;21.208;2022-08-21T01:12:08;8.73;;;6.70;;
30948;SDS011;17637;51.984;21.208;2022-08-21T01:17:13;8.65;;;6.10;;
30948;SDS011;17637;51.984;21.208;2022-08-21T01:22:21;8.75;;;6.13;;
30948;SDS011;17637;51.984;21.208;2022-08-21T01:27:24;7.32;;;6.30;;
30948;SDS011;17637;51.984;21.208;2022-08-21T01:32:27;7.90;;;6.13;;
30948;SDS011;17637;51.984;21.208;2022-08-21T01:37:31;7.32;;;6.13;;
30948;SDS011;17637;51.984;21.208;2022-08-21T01:42:34;6.80;;;6.00;;
30948;SDS011;17637;51.984;21.208;2022-08-21T01:47:38;7.85;;;6.55;;
30948;SDS011;17637;51.984;21.208;2022-08-21T01:52:42;10.75;;;6.88;;
30948;SDS011;17637;51.984;21.208;2022-08-21T01:57:46;7.05;;;6.35;;
30948;SDS011;17637;51.984;21.208;2022-08-21T02:02:50;7.07;;;6.25;;
30948;SDS011;17637;51.984;21.208;2022-08-21T02:07:55;11.98;;;6.22;;
30948;SDS011;17637;51.984;21.208;2022-08-21T02:12:59;6.68;;;5.95;;
30948;SDS011;17637;51.984;21.208;2022-08-21T02:18:04;10.07;;;6.38;;
30948;SDS011;17637;51.984;21.208;2022-08-21T02:23:10;7.32;;;5.97;;
30948;SDS011;17637;51.984;21.208;2022-08-21T02:28:14;6.60;;;6.00;;
30948;SDS011;17637;51.984;21.208;2022-08-21T02:33:17;7.93;;;6.53;;
30948;SDS011;17637;51.984;21.208;2022-08-21T02:38:24;7.35;;;5.65;;
30948;SDS011;17637;51.984;21.208;2022-08-21T02:43:28;13.38;;;6.38;;
30948;SDS011;17637;51.984;21.208;2022-08-21T02:48:32;7.78;;;5.85;;
30948;SDS011;17637;51.984;21.208;2022-08-21T02:53:38;8.10;;;6.10;;
30948;SDS011;17637;51.984;21.208;2022-08-21T02:58:43;8.15;;;5.95;;
30948;SDS011;17637;51.984;21.208;2022-08-21T03:03:47;7.53;;;5.95;;
30948;SDS011;17637;51.984;21.208;2022-08-21T03:08:53;6.68;;;5.70;;
30948;SDS011;17637;51.984;21.208;2022-08-21T03:13:57;7.30;;;6.60;;
30948;SDS011;17637;51.984;21.208;2022-08-21T03:19:00;7.80;;;6.38;;
30948;SDS011;17637;51.984;21.208;2022-08-21T03:24:06;7.85;;;6.68;;
30948;SDS011;17637;51.984;21.208;2022-08-21T03:29:09;9.63;;;6.68;;
30948;SDS011;17637;51.984;21.208;2022-08-21T03:34:12;9.45;;;7.25;;
30948;SDS011;17637;51.984;21.208;2022-08-21T03:39:17;10.13;;;7.43;;
30948;SDS011;17637;51.984;21.208;2022-08-21T03:44:23;10.75;;;7.55;;
30948;SDS011;17637;51.984;21.208;2022-08-21T03:49:26;8.30;;;7.10;;
30948;SDS011;17637;51.984;21.208;2022-08-21T03:54:34;7.75;;;7.05;;
30948;SDS011;17637;51.984;21.208;2022-08-21T03:59:37;9.60;;;7.05;;
30948;SDS011;17637;51.984;21.208;2022-08-21T04:04:41;7.68;;;6.72;;
30948;SDS011;17637;51.984;21.208;2022-08-21T04:09:45;7.40;;;6.65;;
30948;SDS011;17637;51.984;21.208;2022-08-21T04:14:48;8.82;;;6.72;;
30948;SDS011;17637;51.984;21.208;2022-08-21T04:19:54;8.90;;;6.47;;
30948;SDS011;17637;51.984;21.208;2022-08-21T04:24:58;6.68;;;6.07;;
30948;SDS011;17637;51.984;21.208;2022-08-21T04:30:01;8.07;;;6.07;;
30948;SDS011;17637;51.984;21.208;2022-08-21T04:35:06;7.60;;;5.97;;
30948;SDS011;17637;51.984;21.208;2022-08-21T04:40:13;7.82;;;6.38;;
30948;SDS011;17637;51.984;21.208;2022-08-21T04:45:19;9.52;;;5.50;;
30948;SDS011;17637;51.984;21.208;2022-08-21T04:50:24;6.22;;;5.63;;
30948;SDS011;17637;51.984;21.208;2022-08-21T04:55:31;7.20;;;6.50;;
30948;SDS011;17637;51.984;21.208;2022-08-21T05:00:34;9.05;;;6.15;;
30948;SDS011;17637;51.984;21.208;2022-08-21T05:05:38;8.60;;;6.35;;
30948;SDS011;17637;51.984;21.208;2022-08-21T05:10:43;8.77;;;6.45;;
30948;SDS011;17637;51.984;21.208;2022-08-21T05:15:46;7.82;;;5.70;;
30948;SDS011;17637;51.984;21.208;2022-08-21T05:20:50;6.68;;;6.07;;
30948;SDS011;17637;51.984;21.208;2022-08-21T05:25:54;7.75;;;6.35;;
30948;SDS011;17637;51.984;21.208;2022-08-21T05:30:58;10.65;;;6.18;;
30948;SDS011;17637;51.984;21.208;2022-08-21T05:36:01;6.68;;;5.70;;
30948;SDS011;17637;51.984;21.208;2022-08-21T05:41:06;6.32;;;5.72;;
30948;SDS011;17637;51.984;21.208;2022-08-21T05:46:09;7.15;;;5.80;;
30948;SDS011;17637;51.984;21.208;2022-08-21T05:51:14;7.68;;;4.97;;
30948;SDS011;17637;51.984;21.208;2022-08-21T05:56:19;6.93;;;4.93;;
30948;SDS011;17637;51.984;21.208;2022-08-21T06:01:22;5.88;;;5.20;;
30948;SDS011;17637;51.984;21.208;2022-08-21T06:06:24;5.80;;;5.20;;
30948;SDS011;17637;51.984;21.208;2022-08-21T06:11:29;7.15;;;5.40;;
30948;SDS011;17637;51.984;21.208;2022-08-21T06:16:32;8.40;;;5.20;;
30948;SDS011;17637;51.984;21.208;2022-08-21T06:21:35;6.57;;;5.85;;
30948;SDS011;17637;51.984;21.208;2022-08-21T06:26:39;6.28;;;5.45;;
30948;SDS011;17637;51.984;21.208;2022-08-21T06:31:43;7.30;;;5.68;;
30948;SDS011;17637;51.984;21.208;2022-08-21T06:36:48;8.63;;;5.97;;
30948;SDS011;17637;51.984;21.208;2022-08-21T06:41:53;7.97;;;5.57;;
30948;SDS011;17637;51.984;21.208;2022-08-21T06:46:57;6.45;;;4.75;;
30948;SDS011;17637;51.984;21.208;2022-08-21T06:52:00;5.93;;;5.07;;
30948;SDS011;17637;51.984;21.208;2022-08-21T06:57:05;7.45;;;4.80;;
30948;SDS011;17637;51.984;21.208;2022-08-21T07:02:08;7.80;;;5.55;;
30948;SDS011;17637;51.984;21.208;2022-08-21T07:07:11;6.50;;;5.72;;
30948;SDS011;17637;51.984;21.208;2022-08-21T07:12:16;6.13;;;5.53;;
30948;SDS011;17637;51.984;21.208;2022-08-21T07:17:19;6.85;;;5.25;;
30948;SDS011;17637;51.984;21.208;2022-08-21T07:22:23;8.90;;;4.95;;
30948;SDS011;17637;51.984;21.208;2022-08-21T07:27:27;7.13;;;5.28;;
30948;SDS011;17637;51.984;21.208;2022-08-21T07:32:30;9.20;;;5.50;;
30948;SDS011;17637;51.984;21.208;2022-08-21T07:37:34;6.40;;;5.30;;
30948;SDS011;17637;51.984;21.208;2022-08-21T07:42:41;7.82;;;5.70;;
30948;SDS011;17637;51.984;21.208;2022-08-21T07:47:44;7.70;;;5.43;;
30948;SDS011;17637;51.984;21.208;2022-08-21T07:52:48;7.18;;;5.47;;
30948;SDS011;17637;51.984;21.208;2022-08-21T07:57:52;8.30;;;5.80;;
30948;SDS011;17637;51.984;21.208;2022-08-21T08:02:55;7.05;;;5.68;;
30948;SDS011;17637;51.984;21.208;2022-08-21T08:07:59;5.88;;;4.90;;
30948;SDS011;17637;51.984;21.208;2022-08-21T08:13:03;6.30;;;4.88;;
30948;SDS011;17637;51.984;21.208;2022-08-21T08:18:11;10.07;;;5.25;;
30948;SDS011;17637;51.984;21.208;2022-08-21T08:23:15;6.57;;;5.20;;
30948;SDS011;17637;51.984;21.208;2022-08-21T08:28:20;6.15;;;4.80;;
30948;SDS011;17637;51.984;21.208;2022-08-21T08:33:24;8.18;;;5.15;;
30948;SDS011;17637;51.984;21.208;2022-08-21T08:38:27;5.65;;;5.10;;
30948;SDS011;17637;51.984;21.208;2022-08-21T08:43:32;6.28;;;5.00;;
30948;SDS011;17637;51.984;21.208;2022-08-21T08:48:39;5.75;;;5.15;;
30948;SDS011;17637;51.984;21.208;2022-08-21T08:53:55;7.38;;;4.80;;
30948;SDS011;17637;51.984;21.208;2022-08-21T08:59:08;5.30;;;4.20;;
30948;SDS011;17637;51.984;21.208;2022-08-21T09:04:17;4.40;;;4.00;;
30948;SDS011;17637;51.984;21.208;2022-08-21T09:09:29;4.57;;;3.88;;
30948;SDS011;17637;51.984;21.208;2022-08-21T09:14:45;6.32;;;3.80;;
30948;SDS011;17637;51.984;21.208;2022-08-21T09:20:00;6.03;;;3.80;;
30948;SDS011;17637;51.984;21.208;2022-08-21T09:25:15;5.85;;;3.50;;
30948;SDS011;17637;51.984;21.208;2022-08-21T09:30:28;4.00;;;3.50;;
30948;SDS011;17637;51.984;21.208;2022-08-21T09:35:33;4.10;;;3.28;;
30948;SDS011;17637;51.984;21.208;2022-08-21T09:40:38;7.70;;;3.35;;
30948;SDS011;17637;51.984;21.208;2022-08-21T09:45:45;3.80;;;3.00;;
30948;SDS011;17637;51.984;21.208;2022-08-21T09:50:49;6.65;;;3.50;;
30948;SDS011;17637;51.984;21.208;2022-08-21T09:55:54;6.10;;;3.33;;
30948;SDS011;17637;51.984;21.208;2022-08-21T10:01:24;4.68;;;3.40;;
30948;SDS011;17637;51.984;21.208;2022-08-21T10:06:28;5.32;;;3.03;;
30948;SDS011;17637;51.984;21.208;2022-08-21T10:11:31;4.68;;;3.38;;
30948;SDS011;17637;51.984;21.208;2022-08-21T10:16:40;4.88;;;3.05;;
30948;SDS011;17637;51.984;21.208;2022-08-21T10:21:57;3.80;;;2.95;;
30948;SDS011;17637;51.984;21.208;2022-08-21T10:27:07;3.08;;;2.78;;
30948;SDS011;17637;51.984;21.208;2022-08-21T10:32:22;3.15;;;2.85;;
30948;SDS011;17637;51.984;21.208;2022-08-21T10:37:37;3.17;;;2.70;;
30948;SDS011;17637;51.984;21.208;2022-08-21T10:42:49;3.95;;;2.85;;
30948;SDS011;17637;51.984;21.208;2022-08-21T10:48:05;3.42;;;2.88;;
30948;SDS011;17637;51.984;21.208;2022-08-21T10:53:22;4.03;;;2.55;;
30948;SDS011;17637;51.984;21.208;2022-08-21T10:58:36;3.13;;;2.60;;
30948;SDS011;17637;51.984;21.208;2022-08-21T11:03:49;4.83;;;2.87;;
30948;SDS011;17637;51.984;21.208;2022-08-21T11:08:57;4.10;;;2.85;;
30948;SDS011;17637;51.984;21.208;2022-08-21T11:14:08;5.95;;;2.72;;
30948;SDS011;17637;51.984;21.208;2022-08-21T11:19:21;4.68;;;2.40;;
30948;SDS011;17637;51.984;21.208;2022-08-21T11:24:32;3.17;;;2.58;;
30948;SDS011;17637;51.984;21.208;2022-08-21T11:29:43;3.88;;;3.00;;
30948;SDS011;17637;51.984;21.208;2022-08-21T11:34:54;5.07;;;3.20;;
30948;SDS011;17637;51.984;21.208;2022-08-21T11:40:04;3.85;;;2.80;;
30948;SDS011;17637;51.984;21.208;2022-08-21T11:45:14;3.75;;;3.40;;
30948;SDS011;17637;51.984;21.208;2022-08-21T11:50:26;3.23;;;2.60;;
30948;SDS011;17637;51.984;21.208;2022-08-21T11:55:38;4.57;;;3.40;;
30948;SDS011;17637;51.984;21.208;2022-08-21T12:00:47;6.70;;;3.60;;
30948;SDS011;17637;51.984;21.208;2022-08-21T12:05:56;3.47;;;2.92;;
30948;SDS011;17637;51.984;21.208;2022-08-21T12:11:04;3.40;;;3.10;;
30948;SDS011;17637;51.984;21.208;2022-08-21T12:16:10;3.42;;;3.13;;
30948;SDS011;17637;51.984;21.208;2022-08-21T12:21:31;6.45;;;5.57;;
30948;SDS011;17637;51.984;21.208;2022-08-21T12:31:54;4.28;;;3.20;;
30948;SDS011;17637;51.984;21.208;2022-08-21T12:42:10;3.85;;;2.65;;
30948;SDS011;17637;51.984;21.208;2022-08-21T12:47:23;5.30;;;3.28;;
30948;SDS011;17637;51.984;21.208;2022-08-21T12:52:34;4.22;;;3.10;;
30948;SDS011;17637;51.984;21.208;2022-08-21T12:57:41;3.75;;;2.90;;
30948;SDS011;17637;51.984;21.208;2022-08-21T13:02:45;6.70;;;2.95;;
30948;SDS011;17637;51.984;21.208;2022-08-21T13:07:51;5.57;;;3.35;;
30948;SDS011;17637;51.984;21.208;2022-08-21T13:12:55;3.65;;;2.85;;
30948;SDS011;17637;51.984;21.208;2022-08-21T13:18:02;3.38;;;3.05;;
30948;SDS011;17637;51.984;21.208;2022-08-21T13:23:18;6.82;;;3.03;;
30948;SDS011;17637;51.984;21.208;2022-08-21T13:28:32;2.85;;;2.50;;
30948;SDS011;17637;51.984;21.208;2022-08-21T13:33:36;3.45;;;2.72;;
30948;SDS011;17637;51.984;21.208;2022-08-21T13:38:42;3.97;;;2.80;;
30948;SDS011;17637;51.984;21.208;2022-08-21T13:43:48;3.25;;;2.95;;
30948;SDS011;17637;51.984;21.208;2022-08-21T13:48:59;3.58;;;2.88;;
30948;SDS011;17637;51.984;21.208;2022-08-21T13:54:13;4.15;;;2.65;;
30948;SDS011;17637;51.984;21.208;2022-08-21T13:59:25;3.42;;;3.10;;
30948;SDS011;17637;51.984;21.208;2022-08-21T14:04:33;4.30;;;3.17;;
30948;SDS011;17637;51.984;21.208;2022-08-21T14:09:41;3.92;;;3.00;;
30948;SDS011;17637;51.984;21.208;2022-08-21T14:14:46;4.28;;;3.28;;
30948;SDS011;17637;51.984;21.208;2022-08-21T14:19:49;3.42;;;3.10;;
30948;SDS011;17637;51.984;21.208;2022-08-21T14:24:59;4.72;;;3.20;;
30948;SDS011;17637;51.984;21.208;2022-08-21T14:30:08;4.22;;;3.38;;
30948;SDS011;17637;51.984;21.208;2022-08-21T14:35:15;6.88;;;3.60;;
30948;SDS011;17637;51.984;21.208;2022-08-21T14:40:26;4.05;;;3.05;;
30948;SDS011;17637;51.984;21.208;2022-08-21T14:45:29;3.33;;;3.03;;
30948;SDS011;17637;51.984;21.208;2022-08-21T14:50:34;3.28;;;2.90;;
30948;SDS011;17637;51.984;21.208;2022-08-21T14:55:38;5.20;;;3.15;;
30948;SDS011;17637;51.984;21.208;2022-08-21T15:01:00;3.20;;;2.90;;
30948;SDS011;17637;51.984;21.208;2022-08-21T15:06:06;3.42;;;3.03;;
30948;SDS011;17637;51.984;21.208;2022-08-21T15:11:13;3.33;;;3.00;;
30948;SDS011;17637;51.984;21.208;2022-08-21T15:16:41;4.40;;;3.42;;
30948;SDS011;17637;51.984;21.208;2022-08-21T15:21:44;7.53;;;6.80;;
30948;SDS011;17637;51.984;21.208;2022-08-21T15:26:49;3.58;;;3.05;;
30948;SDS011;17637;51.984;21.208;2022-08-21T15:31:53;7.38;;;3.50;;
30948;SDS011;17637;51.984;21.208;2022-08-21T15:36:59;5.38;;;3.80;;
30948;SDS011;17637;51.984;21.208;2022-08-21T15:42:03;5.10;;;3.63;;
30948;SDS011;17637;51.984;21.208;2022-08-21T15:47:12;3.40;;;3.10;;
30948;SDS011;17637;51.984;21.208;2022-08-21T15:52:17;6.15;;;3.70;;
30948;SDS011;17637;51.984;21.208;2022-08-21T15:57:24;4.28;;;3.88;;
30948;SDS011;17637;51.984;21.208;2022-08-21T16:02:29;4.93;;;3.80;;
30948;SDS011;17637;51.984;21.208;2022-08-21T16:07:33;4.72;;;3.88;;
30948;SDS011;17637;51.984;21.208;2022-08-21T16:12:38;6.32;;;4.10;;
30948;SDS011;17637;51.984;21.208;2022-08-21T16:17:45;4.22;;;3.63;;
30948;SDS011;17637;51.984;21.208;2022-08-21T16:22:50;6.32;;;3.72;;
30948;SDS011;17637;51.984;21.208;2022-08-21T16:27:57;4.45;;;3.83;;
30948;SDS011;17637;51.984;21.208;2022-08-21T16:33:03;6.07;;;4.07;;
30948;SDS011;17637;51.984;21.208;2022-08-21T16:38:08;4.50;;;4.10;;
30948;SDS011;17637;51.984;21.208;2022-08-21T16:43:14;6.00;;;4.13;;
30948;SDS011;17637;51.984;21.208;2022-08-21T16:48:18;7.07;;;4.10;;
30948;SDS011;17637;51.984;21.208;2022-08-21T16:53:37;4.30;;;3.90;;
30948;SDS011;17637;51.984;21.208;2022-08-21T16:58:43;4.97;;;3.75;;
30948;SDS011;17637;51.984;21.208;2022-08-21T17:03:49;4.63;;;4.18;;
30948;SDS011;17637;51.984;21.208;2022-08-21T17:08:53;4.40;;;4.00;;
30948;SDS011;17637;51.984;21.208;2022-08-21T17:13:58;4.45;;;4.05;;
30948;SDS011;17637;51.984;21.208;2022-08-21T17:19:06;6.28;;;4.32;;
30948;SDS011;17637;51.984;21.208;2022-08-21T17:24:10;5.07;;;4.13;;
30948;SDS011;17637;51.984;21.208;2022-08-21T17:29:18;6.10;;;4.30;;
30948;SDS011;17637;51.984;21.208;2022-08-21T17:34:26;5.00;;;4.57;;
30948;SDS011;17637;51.984;21.208;2022-08-21T17:39:32;5.60;;;4.78;;
30948;SDS011;17637;51.984;21.208;2022-08-21T17:44:39;5.15;;;4.55;;
30948;SDS011;17637;51.984;21.208;2022-08-21T17:49:43;6.95;;;5.05;;
30948;SDS011;17637;51.984;21.208;2022-08-21T17:54:46;7.53;;;6.57;;
30948;SDS011;17637;51.984;21.208;2022-08-21T17:59:51;8.65;;;6.55;;
30948;SDS011;17637;51.984;21.208;2022-08-21T18:04:59;9.25;;;5.85;;
30948;SDS011;17637;51.984;21.208;2022-08-21T18:10:04;7.90;;;5.28;;
30948;SDS011;17637;51.984;21.208;2022-08-21T18:15:13;6.60;;;5.05;;
30948;SDS011;17637;51.984;21.208;2022-08-21T18:20:19;7.63;;;4.97;;
30948;SDS011;17637;51.984;21.208;2022-08-21T18:25:25;7.13;;;5.35;;
30948;SDS011;17637;51.984;21.208;2022-08-21T18:30:31;6.72;;;5.43;;
30948;SDS011;17637;51.984;21.208;2022-08-21T18:35:37;6.75;;;6.05;;
30948;SDS011;17637;51.984;21.208;2022-08-21T18:40:42;6.85;;;5.43;;
30948;SDS011;17637;51.984;21.208;2022-08-21T18:45:49;8.55;;;6.03;;
30948;SDS011;17637;51.984;21.208;2022-08-21T18:50:52;9.73;;;6.18;;
30948;SDS011;17637;51.984;21.208;2022-08-21T18:55:56;7.63;;;5.03;;
30948;SDS011;17637;51.984;21.208;2022-08-21T19:01:21;6.32;;;5.35;;
30948;SDS011;17637;51.984;21.208;2022-08-21T19:06:25;8.52;;;5.43;;
30948;SDS011;17637;51.984;21.208;2022-08-21T19:11:28;8.35;;;5.47;;
30948;SDS011;17637;51.984;21.208;2022-08-21T19:16:33;9.07;;;5.80;;
30948;SDS011;17637;51.984;21.208;2022-08-21T19:21:37;7.43;;;5.05;;
30948;SDS011;17637;51.984;21.208;2022-08-21T19:26:40;6.13;;;5.00;;
30948;SDS011;17637;51.984;21.208;2022-08-21T19:31:45;6.15;;;4.72;;
30948;SDS011;17637;51.984;21.208;2022-08-21T19:36:49;7.05;;;5.55;;
30948;SDS011;17637;51.984;21.208;2022-08-21T19:41:53;7.60;;;5.60;;
30948;SDS011;17637;51.984;21.208;2022-08-21T19:47:00;10.50;;;6.20;;
30948;SDS011;17637;51.984;21.208;2022-08-21T19:52:06;6.78;;;5.53;;
30948;SDS011;17637;51.984;21.208;2022-08-21T19:57:14;6.70;;;5.80;;
30948;SDS011;17637;51.984;21.208;2022-08-21T20:02:20;6.90;;;5.95;;
30948;SDS011;17637;51.984;21.208;2022-08-21T20:07:23;6.63;;;5.70;;
30948;SDS011;17637;51.984;21.208;2022-08-21T20:12:46;11.38;;;5.85;;
30948;SDS011;17637;51.984;21.208;2022-08-21T20:17:53;9.68;;;6.07;;
30948;SDS011;17637;51.984;21.208;2022-08-21T20:22:58;6.38;;;5.68;;
30948;SDS011;17637;51.984;21.208;2022-08-21T20:28:11;7.00;;;5.72;;
30948;SDS011;17637;51.984;21.208;2022-08-21T20:33:20;9.65;;;6.38;;
30948;SDS011;17637;51.984;21.208;2022-08-21T20:38:23;8.35;;;6.25;;
30948;SDS011;17637;51.984;21.208;2022-08-21T20:43:26;7.22;;;6.32;;
30948;SDS011;17637;51.984;21.208;2022-08-21T20:48:32;6.18;;;5.68;;
30948;SDS011;17637;51.984;21.208;2022-08-21T20:53:51;6.53;;;5.93;;
30948;SDS011;17637;51.984;21.208;2022-08-21T20:59:07;6.70;;;5.70;;
30948;SDS011;17637;51.984;21.208;2022-08-21T21:04:25;9.10;;;6.20;;
30948;SDS011;17637;51.984;21.208;2022-08-21T21:09:35;8.25;;;5.97;;
30948;SDS011;17637;51.984;21.208;2022-08-21T21:14:44;7.35;;;5.53;;
30948;SDS011;17637;51.984;21.208;2022-08-21T21:19:51;6.80;;;5.63;;
30948;SDS011;17637;51.984;21.208;2022-08-21T21:24:59;8.10;;;5.70;;
30948;SDS011;17637;51.984;21.208;2022-08-21T21:30:08;9.95;;;6.10;;
30948;SDS011;17637;51.984;21.208;2022-08-21T21:35:18;7.70;;;6.30;;
30948;SDS011;17637;51.984;21.208;2022-08-21T21:40:40;7.20;;;6.38;;
30948;SDS011;17637;51.984;21.208;2022-08-21T21:45:58;7.47;;;6.63;;
30948;SDS011;17637;51.984;21.208;2022-08-21T21:51:13;8.02;;;6.90;;
30948;SDS011;17637;51.984;21.208;2022-08-21T21:56:36;9.07;;;6.68;;
30948;SDS011;17637;51.984;21.208;2022-08-21T22:01:45;8.30;;;6.97;;
30948;SDS011;17637;51.984;21.208;2022-08-21T22:06:57;9.57;;;7.05;;
30948;SDS011;17637;51.984;21.208;2022-08-21T22:12:07;7.25;;;6.28;;
30948;SDS011;17637;51.984;21.208;2022-08-21T22:17:32;10.25;;;6.97;;
30948;SDS011;17637;51.984;21.208;2022-08-21T22:22:43;8.55;;;6.93;;
30948;SDS011;17637;51.984;21.208;2022-08-21T22:27:50;8.43;;;6.65;;
30948;SDS011;17637;51.984;21.208;2022-08-21T22:33:00;8.63;;;7.63;;
30948;SDS011;17637;51.984;21.208;2022-08-21T22:38:20;8.30;;;6.78;;
30948;SDS011;17637;51.984;21.208;2022-08-21T22:43:31;9.05;;;8.15;;
30948;SDS011;17637;51.984;21.208;2022-08-21T22:48:36;10.63;;;7.78;;
30948;SDS011;17637;51.984;21.208;2022-08-21T22:53:51;9.70;;;6.88;;
30948;SDS011;17637;51.984;21.208;2022-08-21T22:58:58;8.82;;;6.95;;
30948;SDS011;17637;51.984;21.208;2022-08-21T23:04:16;10.48;;;8.35;;
30948;SDS011;17637;51.984;21.208;2022-08-21T23:09:30;9.45;;;8.35;;
30948;SDS011;17637;51.984;21.208;2022-08-21T23:14:35;9.10;;;8.07;;
30948;SDS011;17637;51.984;21.208;2022-08-21T23:19:43;8.70;;;7.85;;
30948;SDS011;17637;51.984;21.208;2022-08-21T23:25:03;11.30;;;8.30;;
30948;SDS011;17637;51.984;21.208;2022-08-21T23:30:29;11.02;;;9.15;;
30948;SDS011;17637;51.984;21.208;2022-08-21T23:35:43;10.10;;;8.68;;
30948;SDS011;17637;51.984;21.208;2022-08-21T23:41:25;9.43;;;8.43;;
30948;SDS011;17637;51.984;21.208;2022-08-21T23:46:40;11.32;;;8.52;;
30948;SDS011;17637;51.984;21.208;2022-08-21T23:51:55;8.52;;;7.70;;
30948;SDS011;17637;51.984;21.208;2022-08-21T23:57:08;10.15;;;8.07;;
